Tehachapi, CA

6:47 PM PST on February 26, 2017 (GMT -0800)
Tehachapi Municipal

Weather History for KTSP - November, 2011

Change the Weather History Date:

Wednesday, November 9, 2011

  Actual Average Record
Temperature  
Mean Temperature 46 °F -  
Max Temperature 55 °F 61 °F 77 °F (2014)
Min Temperature 37 °F 36 °F 30 °F (2013)
Degree Days  
Heating Degree Days 19    
Moisture  
Dew Point 13 °F    
Average Humidity 28    
Maximum Humidity 48    
Minimum Humidity 15    
Precipitation  
Precipitation 0.00 in - - ()
Sea Level Pressure  
Sea Level Pressure 30.32 in    
Wind  
Wind Speed 16 mph (SE)    
Max Wind Speed 26 mph    
Max Gust Speed 34 mph    
Visibility 10 miles    
Events Rain    
Averages and records for this station are not official NWS values.
T = Trace of Precipitation, MM = Missing Value Source: NWS Daily Summary

Daily Weather History Graph

Daily Weather History Graph

Search for Another Location

Airport or City:

Trip Planner

Search our weather history database for the weather conditions in past years. The results will help you decide how hot, cold, wet, or windy it might be!

Date:

Astronomy

Nov. 09, 2011 Rise Set
Actual Time 6:22 AM PST 4:52 PM PST
Civil Twilight 5:55 AM PST 5:18 PM PST
Nautical Twilight 5:25 AM PST 5:49 PM PST
Astronomical Twilight 4:55 AM PST 6:19 PM PST
Moon 4:07 PM PST (11/9) 5:22 AM PST (11/9)
Length of Visible Light 11h 23m
Length of Day
10h 29m
Waxing Gibbous, 99% of the Moon is Illuminated
Nov 9
Waxing Gibbous
Nov 10
Full
Nov 18
Last Quarter
Nov 24
New
Dec 2
First Quarter

Hourly Weather History & Observations

Time (PST) Temp. Windchill Dew Point Humidity Pressure Visibility Wind Dir Wind Speed Gust Speed Precip Events Conditions
12:15 AM 37.4 °F 30.3 °F 19.4 °F 48% 30.32 in 10.0 mi East 10.4 mph - N/A   Clear
12:35 AM 37.4 °F 30.8 °F 19.4 °F 48% 30.32 in 10.0 mi East 9.2 mph - N/A   Clear
12:55 AM 37.4 °F 30.8 °F 19.4 °F 48% 30.32 in 10.0 mi East 9.2 mph - N/A   Clear
1:15 AM 39.2 °F 31.6 °F 17.6 °F 42% 30.33 in 10.0 mi East 12.7 mph - N/A   Clear
1:35 AM 39.2 °F 30.8 °F 17.6 °F 42% 30.32 in 10.0 mi East 15.0 mph - N/A   Clear
1:55 AM 39.2 °F 31.6 °F 17.6 °F 42% 30.32 in 10.0 mi East 12.7 mph - N/A   Clear
2:15 AM 37.4 °F 30.3 °F 17.6 °F 45% 30.31 in 10.0 mi East 10.4 mph - N/A   Clear
2:35 AM 37.4 °F 29.8 °F 17.6 °F 45% 30.31 in 10.0 mi East 11.5 mph - N/A   Clear
2:55 AM 39.2 °F 31.6 °F 17.6 °F 42% 30.31 in 10.0 mi SE 12.7 mph 17.3 mph N/A   Clear
3:15 AM 41.0 °F 32.5 °F 17.6 °F 39% 30.31 in 10.0 mi SE 17.3 mph 21.9 mph N/A   Clear
3:35 AM 41.0 °F 32.5 °F 17.6 °F 39% 30.30 in 10.0 mi SE 17.3 mph 25.3 mph N/A   Clear
3:55 AM 41.0 °F 32.8 °F 17.6 °F 39% 30.30 in 10.0 mi SE 16.1 mph 23.0 mph N/A   Clear
4:15 AM 41.0 °F 32.8 °F 15.8 °F 36% 30.31 in 10.0 mi SE 16.1 mph 23.0 mph N/A   Clear
4:35 AM 41.0 °F 32.2 °F 15.8 °F 36% 30.31 in 10.0 mi SE 18.4 mph 24.2 mph N/A   Clear
4:55 AM 41.0 °F 32.2 °F 15.8 °F 36% 30.32 in 10.0 mi SE 18.4 mph 25.3 mph N/A   Clear
5:15 AM 41.0 °F 32.5 °F 15.8 °F 36% 30.32 in 10.0 mi SE 17.3 mph 23.0 mph N/A   Clear
5:35 AM 39.2 °F 30.8 °F 15.8 °F 39% 30.32 in 10.0 mi SE 15.0 mph 20.7 mph N/A   Clear
5:55 AM 39.2 °F 30.5 °F 15.8 °F 39% 30.33 in 10.0 mi SE 16.1 mph - N/A   Clear
6:15 AM 39.2 °F 30.5 °F 15.8 °F 39% 30.34 in 10.0 mi SE 16.1 mph 23.0 mph N/A   Clear
6:35 AM 39.2 °F 30.8 °F 15.8 °F 39% 30.34 in 10.0 mi SE 15.0 mph - N/A   Clear
6:55 AM 41.0 °F 32.2 °F 15.8 °F 36% 30.35 in 10.0 mi SE 18.4 mph 25.3 mph N/A   Clear
7:15 AM 41.0 °F 32.2 °F 15.8 °F 36% 30.36 in 10.0 mi SE 18.4 mph 25.3 mph N/A   Clear
7:35 AM 44.6 °F 36.6 °F 15.8 °F 31% 30.37 in 10.0 mi SE 19.6 mph 26.5 mph N/A   Clear
7:55 AM 44.6 °F 36.4 °F 15.8 °F 31% 30.38 in 10.0 mi ESE 20.7 mph 26.5 mph N/A   Clear
8:15 AM 46.4 °F 38.3 °F 17.6 °F 32% 30.38 in 8.0 mi SE 23.0 mph 26.5 mph N/A   Clear
8:35 AM 46.4 °F 38.3 °F 17.6 °F 32% 30.38 in 10.0 mi SE 23.0 mph 27.6 mph N/A   Clear
8:55 AM 46.4 °F 38.5 °F 17.6 °F 32% 30.38 in 9.0 mi SE 21.9 mph 26.5 mph N/A   Clear
9:15 AM 48.2 °F - 17.6 °F 30% 30.38 in 9.0 mi SE 23.0 mph 29.9 mph N/A   Clear
9:35 AM 48.2 °F - 15.8 °F 27% 30.38 in 9.0 mi SE 20.7 mph 29.9 mph N/A Rain Light Rain
10:15 AM 50.0 °F - 15.8 °F 26% 30.38 in 7.0 mi SE 23.0 mph 29.9 mph N/A   Clear
10:35 AM 50.0 °F - 15.8 °F 26% 30.37 in 5.0 mi SE 20.7 mph 29.9 mph N/A Rain Light Rain
10:55 AM 51.8 °F - 15.8 °F 24% 30.37 in 8.0 mi ESE 21.9 mph 34.5 mph N/A   Clear
11:15 AM 53.6 °F - 15.8 °F 22% 30.36 in 8.0 mi SE 25.3 mph 32.2 mph N/A   Clear
11:35 AM 53.6 °F - 14.0 °F 21% 30.34 in 7.0 mi SE 21.9 mph 31.1 mph N/A   Clear
11:55 AM 55.4 °F - 14.0 °F 20% 30.34 in 7.0 mi SE 19.6 mph 31.1 mph N/A   Clear
12:15 PM 55.4 °F - 12.2 °F 18% 30.33 in 8.0 mi SE 26.5 mph 32.2 mph N/A   Clear
12:35 PM 55.4 °F - 10.4 °F 17% 30.32 in 8.0 mi SE 24.2 mph 33.4 mph N/A   Clear
12:55 PM 55.4 °F - 12.2 °F 18% 30.31 in 10.0 mi SE 21.9 mph 33.4 mph N/A   Clear
1:15 PM 55.4 °F - 10.4 °F 17% 30.30 in 9.0 mi SE 26.5 mph 34.5 mph N/A   Clear
1:35 PM 55.4 °F - 10.4 °F 17% 30.30 in 9.0 mi SE 23.0 mph 32.2 mph N/A   Clear
1:55 PM 55.4 °F - 10.4 °F 17% 30.29 in 9.0 mi SE 24.2 mph 32.2 mph N/A   Clear
2:15 PM 55.4 °F - 10.4 °F 17% 30.29 in 10.0 mi SE 24.2 mph 29.9 mph N/A   Clear
2:35 PM 55.4 °F - 10.4 °F 17% 30.28 in 10.0 mi ESE 23.0 mph 29.9 mph N/A   Clear
2:55 PM 55.4 °F - 8.6 °F 15% 30.28 in 10.0 mi SE 20.7 mph 28.8 mph N/A   Clear
3:15 PM 53.6 °F - 8.6 °F 16% 30.28 in 10.0 mi ESE 20.7 mph 26.5 mph N/A   Clear
3:55 PM 53.6 °F - 8.6 °F 16% 30.27 in 10.0 mi ESE 18.4 mph 28.8 mph N/A   Clear
4:15 PM 51.8 °F - 8.6 °F 18% 30.27 in 10.0 mi SE 19.6 mph 24.2 mph N/A   Clear
4:35 PM 50.0 °F - 8.6 °F 19% 30.27 in 10.0 mi ESE 16.1 mph 23.0 mph N/A   Clear
4:55 PM 48.2 °F - 8.6 °F 20% 30.28 in 10.0 mi ESE 13.8 mph - N/A   Clear
5:15 PM 48.2 °F - 8.6 °F 20% 30.29 in 10.0 mi East 15.0 mph 19.6 mph N/A   Clear
5:35 PM 48.2 °F - 8.6 °F 20% 30.29 in 10.0 mi ESE 16.1 mph - N/A   Clear
6:15 PM 46.4 °F 40.4 °F 8.6 °F 22% 30.30 in 10.0 mi ESE 13.8 mph - N/A   Clear
6:35 PM 48.2 °F - 8.6 °F 20% 30.31 in 10.0 mi ESE 15.0 mph - N/A   Clear
6:55 PM 46.4 °F 41.1 °F 8.6 °F 22% 30.31 in 10.0 mi ESE 11.5 mph 16.1 mph N/A   Clear
7:15 PM 46.4 °F 41.1 °F 8.6 °F 22% 30.32 in 10.0 mi ESE 11.5 mph - N/A   Clear
7:35 PM 46.4 °F 41.1 °F 8.6 °F 22% 30.32 in 10.0 mi ESE 11.5 mph - N/A   Clear
7:55 PM 46.4 °F 41.1 °F 8.6 °F 22% 30.33 in 10.0 mi SE 11.5 mph 19.6 mph N/A   Clear
8:15 PM 44.6 °F 37.8 °F 8.6 °F 23% 30.33 in 10.0 mi SE 15.0 mph - N/A   Clear
8:35 PM 46.4 °F 40.1 °F 8.6 °F 22% 30.34 in 10.0 mi SE 15.0 mph - N/A   Clear
8:55 PM 46.4 °F 39.8 °F 8.6 °F 22% 30.34 in 10.0 mi SE 16.1 mph - N/A   Clear
9:15 PM 44.6 °F 38.4 °F 10.4 °F 25% 30.33 in 10.0 mi ESE 12.7 mph - N/A   Clear
9:35 PM 48.2 °F - 8.6 °F 20% 30.33 in 10.0 mi ESE 13.8 mph - N/A   Clear
9:55 PM 48.2 °F - 8.6 °F 20% 30.33 in 10.0 mi East 16.1 mph 23.0 mph N/A   Clear
10:15 PM 48.2 °F - 10.4 °F 22% 30.33 in 10.0 mi ESE 15.0 mph 21.9 mph N/A   Clear
10:35 PM 48.2 °F - 10.4 °F 22% 30.32 in 10.0 mi ESE 15.0 mph 20.7 mph N/A   Clear
10:55 PM 48.2 °F - 10.4 °F 22% 30.32 in 10.0 mi ESE 15.0 mph - N/A   Clear
11:15 PM 48.2 °F - 10.4 °F 22% 30.32 in 10.0 mi ESE 13.8 mph 18.4 mph N/A   Clear
11:35 PM 46.4 °F 39.8 °F 10.4 °F 23% 30.31 in 10.0 mi SE 16.1 mph 20.7 mph N/A   Clear
11:55 PM 44.6 °F 37.4 °F 10.4 °F 25% 30.31 in 10.0 mi SE 16.1 mph 20.7 mph N/A   Clear